createdAt,value
2024-04-17T00:02:19.037Z,2.60
2024-04-17T00:04:45.956Z,1.40
2024-04-17T00:07:13.550Z,3.90
2024-04-17T00:09:40.495Z,5.10
2024-04-17T00:12:10.614Z,2.80
2024-04-17T00:14:38.168Z,4.40
2024-04-17T00:17:05.929Z,2.50
2024-04-17T00:19:33.434Z,3.20
2024-04-17T00:22:00.183Z,3.00
2024-04-17T00:24:26.923Z,3.30
2024-04-17T00:26:54.533Z,3.90
2024-04-17T00:29:22.216Z,3.70
2024-04-17T00:31:49.823Z,4.20
2024-04-17T00:34:16.910Z,1.90
2024-04-17T00:36:43.792Z,3.30
2024-04-17T00:39:13.677Z,4.50
2024-04-17T00:41:40.613Z,4.30
2024-04-17T00:44:08.679Z,3.50
2024-04-17T00:46:38.730Z,3.20
2024-04-17T00:49:06.697Z,2.60
2024-04-17T00:51:36.169Z,3.40
2024-04-17T00:54:04.513Z,3.20
2024-04-17T00:56:32.544Z,1.90
2024-04-17T00:59:01.505Z,3.70
2024-04-17T01:01:28.552Z,2.60
2024-04-17T01:03:55.922Z,4.00
2024-04-17T01:06:23.738Z,2.70
2024-04-17T01:08:50.927Z,2.90
2024-04-17T01:11:17.747Z,3.00
2024-04-17T01:13:44.988Z,3.40
2024-04-17T01:16:12.307Z,4.50
2024-04-17T01:18:41.596Z,3.90
2024-04-17T01:21:10.859Z,3.30
2024-04-17T01:23:40.384Z,3.20
2024-04-17T01:26:07.160Z,4.80
2024-04-17T01:28:34.406Z,3.80
2024-04-17T01:31:01.329Z,3.70
2024-04-17T01:33:28.729Z,4.80
2024-04-17T01:35:55.778Z,4.70
2024-04-17T01:38:23.055Z,3.40
2024-04-17T01:40:50.023Z,4.10
2024-04-17T01:43:17.142Z,4.60
2024-04-17T01:45:48.698Z,4.50
2024-04-17T01:48:16.630Z,4.90
2024-04-17T01:50:44.596Z,4.30
2024-04-17T01:53:11.989Z,4.00
2024-04-17T01:55:38.889Z,5.30
2024-04-17T01:58:06.082Z,3.50
2024-04-17T02:00:34.859Z,7.70
2024-04-17T02:03:08.901Z,4.70
2024-04-17T02:05:36.619Z,4.50
2024-04-17T02:08:03.511Z,4.30
2024-04-17T02:10:30.730Z,4.60
2024-04-17T02:12:57.892Z,5.70
2024-04-17T02:15:24.715Z,4.50
2024-04-17T02:17:52.497Z,4.40
2024-04-17T02:20:19.579Z,4.60
2024-04-17T02:22:52.333Z,3.60
2024-04-17T02:25:20.564Z,5.10
2024-04-17T02:27:48.270Z,2.60
2024-04-17T02:30:15.444Z,5.00
2024-04-17T02:32:43.180Z,5.10
2024-04-17T02:35:10.343Z,4.30
2024-04-17T02:37:37.530Z,3.40
2024-04-17T02:40:04.983Z,3.30
2024-04-17T02:42:31.952Z,3.90
2024-04-17T02:44:58.945Z,4.40
2024-04-17T02:47:25.815Z,3.10
2024-04-17T02:49:52.794Z,3.90
2024-04-17T02:52:20.573Z,3.10
2024-04-17T02:54:47.498Z,3.40
2024-04-17T02:57:15.048Z,3.80
2024-04-17T02:59:41.945Z,1.30
2024-04-17T03:02:08.834Z,6.70
2024-04-17T03:04:36.044Z,5.50
2024-04-17T03:07:03.353Z,4.30
2024-04-17T03:09:30.636Z,6.80
2024-04-17T03:11:58.779Z,3.20
2024-04-17T03:14:25.975Z,4.50
2024-04-17T03:16:53.058Z,4.00
2024-04-17T03:19:22.003Z,2.50
2024-04-17T03:21:48.999Z,5.00
2024-04-17T03:24:17.694Z,3.60
2024-04-17T03:29:11.506Z,3.00
2024-04-17T03:31:39.891Z,2.50
2024-04-17T03:34:07.065Z,3.90
2024-04-17T03:36:33.924Z,3.10
2024-04-17T03:39:01.066Z,2.80
2024-04-17T03:41:28.427Z,2.60
2024-04-17T03:43:55.479Z,3.20
2024-04-17T03:46:22.751Z,2.50
2024-04-17T03:48:49.502Z,3.50
2024-04-17T03:51:16.346Z,4.20
2024-04-17T03:53:43.184Z,3.80
2024-04-17T03:56:12.093Z,3.00
2024-04-17T03:58:39.528Z,2.30
2024-04-17T04:01:07.531Z,5.80
2024-04-17T04:03:35.431Z,4.60
2024-04-17T04:06:02.306Z,7.60
2024-04-17T04:08:29.206Z,5.10
2024-04-17T04:10:56.485Z,4.00
2024-04-17T04:13:24.268Z,4.70
2024-04-17T04:15:54.841Z,2.70
2024-04-17T04:18:22.080Z,4.30
2024-04-17T04:20:50.185Z,4.40
2024-04-17T04:23:17.325Z,3.70
2024-04-17T04:25:44.321Z,4.50
2024-04-17T04:28:11.259Z,3.70
2024-04-17T04:30:41.276Z,5.00
2024-04-17T04:33:13.038Z,3.40
2024-04-17T04:35:40.749Z,3.60
2024-04-17T04:38:07.671Z,4.10
2024-04-17T04:40:34.658Z,3.40
2024-04-17T04:43:01.588Z,3.00
2024-04-17T04:45:28.861Z,2.20
2024-04-17T04:47:57.184Z,3.00
2024-04-17T04:50:24.145Z,2.70
2024-04-17T04:52:51.621Z,3.40
2024-04-17T04:55:18.548Z,3.00
2024-04-17T04:57:47.813Z,3.80
2024-04-17T05:00:15.493Z,2.10
2024-04-17T05:02:42.556Z,3.30
2024-04-17T05:05:09.742Z,5.80
2024-04-17T05:07:36.967Z,3.60
2024-04-17T05:10:04.092Z,5.00
2024-04-17T05:12:30.919Z,4.10
2024-04-17T05:14:57.850Z,7.40
2024-04-17T05:17:24.693Z,4.30
2024-04-17T05:19:51.495Z,4.10
2024-04-17T05:22:19.622Z,3.70
2024-04-17T05:24:47.031Z,5.00
2024-04-17T05:27:17.060Z,3.00
2024-04-17T05:29:46.712Z,3.20
2024-04-17T05:32:14.709Z,7.50
2024-04-17T05:34:42.502Z,11.80
2024-04-17T05:37:09.737Z,2.80
2024-04-17T05:39:37.017Z,3.40
2024-04-17T05:42:06.921Z,7.00
2024-04-17T05:44:34.823Z,4.50
2024-04-17T05:47:02.311Z,2.60
2024-04-17T05:49:30.996Z,3.80
2024-04-17T05:51:59.077Z,10.00
2024-04-17T05:54:26.550Z,7.90
2024-04-17T05:56:55.911Z,6.50
2024-04-17T05:59:25.924Z,9.30
2024-04-17T06:01:52.713Z,0.90
2024-04-17T06:04:19.800Z,6.50
2024-04-17T06:06:50.998Z,4.20
2024-04-17T06:09:18.805Z,7.30
2024-04-17T06:11:48.441Z,12.30
2024-04-17T06:14:16.290Z,6.20
2024-04-17T06:16:44.970Z,5.10
2024-04-17T06:19:12.842Z,3.60
2024-04-17T06:21:40.592Z,10.00
2024-04-17T06:24:07.695Z,8.70
2024-04-17T06:26:35.935Z,8.10
2024-04-17T06:29:03.974Z,10.40
2024-04-17T06:31:31.443Z,4.80
2024-04-17T06:33:59.314Z,10.00
2024-04-17T06:36:27.638Z,5.20
2024-04-17T06:38:55.450Z,5.10
2024-04-17T06:41:22.454Z,5.10
2024-04-17T06:43:50.303Z,4.50
2024-04-17T06:46:18.027Z,4.40
2024-04-17T06:48:44.859Z,3.10
2024-04-17T06:51:13.337Z,3.90
2024-04-17T06:53:42.874Z,4.60
2024-04-17T06:56:10.360Z,6.20
2024-04-17T06:58:38.155Z,4.30
2024-04-17T07:01:06.001Z,5.70
2024-04-17T07:03:33.096Z,7.20
2024-04-17T07:06:04.609Z,4.00
2024-04-17T07:08:31.911Z,3.90
2024-04-17T07:10:59.222Z,3.80
2024-04-17T07:13:27.524Z,3.50
2024-04-17T07:15:57.267Z,4.90
2024-04-17T07:18:26.116Z,3.00
2024-04-17T07:20:54.207Z,3.80
2024-04-17T07:23:21.898Z,2.80
2024-04-17T07:25:50.726Z,4.10
2024-04-17T07:30:45.078Z,3.90
2024-04-17T07:33:12.393Z,3.30
2024-04-17T07:35:41.950Z,2.90
2024-04-17T07:38:10.702Z,3.40
2024-04-17T07:43:06.861Z,4.30
2024-04-17T07:45:33.923Z,2.10
2024-04-17T07:48:01.213Z,2.30
2024-04-17T07:50:29.248Z,2.60
2024-04-17T07:52:56.307Z,3.00
2024-04-17T07:55:25.736Z,10.00
2024-04-17T07:57:53.039Z,2.50
2024-04-17T08:00:19.910Z,2.40
2024-04-17T08:02:48.249Z,1.40
2024-04-17T08:05:15.371Z,2.40
2024-04-17T08:07:43.407Z,2.00
2024-04-17T08:10:10.566Z,2.00
2024-04-17T08:12:38.017Z,2.50
2024-04-17T08:15:05.319Z,2.10
2024-04-17T08:17:32.555Z,2.40
2024-04-17T08:20:00.219Z,3.60
2024-04-17T08:22:27.972Z,1.80
2024-04-17T08:24:59.324Z,2.00
2024-04-17T08:27:31.772Z,1.50
2024-04-17T08:30:00.595Z,2.40
2024-04-17T08:32:28.313Z,1.80
2024-04-17T08:34:57.657Z,2.10
2024-04-17T08:37:27.253Z,2.10
2024-04-17T08:39:57.306Z,2.10
2024-04-17T08:42:30.497Z,1.70
2024-04-17T08:45:00.511Z,1.40
2024-04-17T08:47:32.874Z,0.80
2024-04-17T08:50:04.659Z,1.40
2024-04-17T08:52:33.998Z,1.60
2024-04-17T08:55:04.052Z,1.50
2024-04-17T08:57:36.293Z,1.20
2024-04-17T09:00:07.501Z,1.40
2024-04-17T09:02:37.173Z,2.10
2024-04-17T09:05:07.437Z,1.90
2024-04-17T09:07:40.712Z,2.20
2024-04-17T09:10:12.228Z,1.40
2024-04-17T09:12:48.003Z,2.00
2024-04-17T09:15:16.696Z,2.10
2024-04-17T09:17:44.740Z,1.40
2024-04-17T09:20:14.545Z,2.10
2024-04-17T09:22:51.144Z,1.80
2024-04-17T09:25:24.532Z,2.10
2024-04-17T09:27:52.771Z,1.60
2024-04-17T09:30:31.016Z,15.10
2024-04-17T09:33:05.582Z,34.10
2024-04-17T09:35:44.578Z,37.90
2024-04-17T09:38:18.731Z,17.60
2024-04-17T09:41:46.670Z,21.10
2024-04-17T09:47:10.034Z,12.20
2024-04-17T09:50:20.773Z,8.50
2024-04-17T09:52:54.591Z,5.60
2024-04-17T09:56:10.649Z,4.40
2024-04-17T10:01:29.589Z,3.90
2024-04-17T10:14:11.439Z,3.10
2024-04-17T10:16:50.608Z,3.70
2024-04-17T10:19:21.951Z,1.80
2024-04-17T10:21:49.683Z,3.50
2024-04-17T10:24:27.136Z,4.50
2024-04-17T10:26:59.422Z,2.20
2024-04-17T10:29:36.874Z,2.30
2024-04-17T10:32:31.146Z,5.50
2024-04-17T10:38:32.728Z,2.50
2024-04-17T10:43:05.429Z,1.90
2024-04-17T10:45:43.303Z,3.10
2024-04-17T10:51:37.793Z,3.10
2024-04-17T10:57:44.644Z,2.30
2024-04-17T11:01:52.402Z,3.00
2024-04-17T11:04:21.587Z,2.60
2024-04-17T11:06:54.293Z,2.50
2024-04-17T11:09:28.651Z,2.90
2024-04-17T11:12:14.019Z,2.90
2024-04-17T11:14:41.418Z,3.20
2024-04-17T11:17:10.403Z,2.90
2024-04-17T11:19:41.693Z,2.70
2024-04-17T11:22:13.246Z,3.90
2024-04-17T11:24:50.440Z,3.60
2024-04-17T11:27:18.680Z,2.20
2024-04-17T11:29:50.295Z,1.70
2024-04-17T11:32:19.505Z,3.50
2024-04-17T11:34:47.459Z,2.50
2024-04-17T11:37:16.325Z,1.90
2024-04-17T11:39:46.512Z,3.30
2024-04-17T11:42:15.643Z,2.80
2024-04-17T11:44:45.247Z,3.10
2024-04-17T11:47:15.251Z,2.30
2024-04-17T11:49:43.874Z,2.10
2024-04-17T11:52:12.899Z,2.60
2024-04-17T11:54:40.808Z,2.30
2024-04-17T11:57:12.227Z,2.50
2024-04-17T11:59:41.995Z,3.10
2024-04-17T12:02:09.005Z,2.40
2024-04-17T12:04:36.639Z,3.30
2024-04-17T12:07:04.377Z,2.50
2024-04-17T12:09:31.399Z,1.70
2024-04-17T12:11:59.089Z,3.30
2024-04-17T12:14:26.141Z,3.60
2024-04-17T12:16:53.160Z,2.10
2024-04-17T12:19:20.356Z,3.60
2024-04-17T12:21:47.218Z,2.60
2024-04-17T12:24:20.722Z,2.10
2024-04-17T12:26:52.146Z,2.00
2024-04-17T12:29:24.003Z,3.70
2024-04-17T12:31:51.150Z,2.10
2024-04-17T12:34:18.633Z,2.70
2024-04-17T12:36:47.797Z,2.60
2024-04-17T12:39:14.764Z,2.30
2024-04-17T12:41:41.744Z,1.50
2024-04-17T12:44:08.723Z,3.10
2024-04-17T12:46:36.288Z,4.10
2024-04-17T12:49:03.550Z,2.40
2024-04-17T12:51:31.454Z,2.10
2024-04-17T12:54:00.299Z,3.00
2024-04-17T12:56:27.205Z,2.50
2024-04-17T12:58:54.156Z,2.60
2024-04-17T13:01:21.337Z,3.50
2024-04-17T13:03:48.420Z,5.00
2024-04-17T13:06:15.533Z,3.10
2024-04-17T13:08:42.440Z,2.00
2024-04-17T13:11:13.418Z,1.50
2024-04-17T13:13:43.152Z,1.80
2024-04-17T13:16:10.066Z,2.20
2024-04-17T13:18:39.305Z,2.80
2024-04-17T13:21:06.955Z,2.70
2024-04-17T13:23:35.654Z,2.50
2024-04-17T13:28:34.987Z,2.00
2024-04-17T13:31:04.002Z,2.90
2024-04-17T13:33:32.287Z,4.90
2024-04-17T13:36:04.846Z,3.60
2024-04-17T13:38:31.838Z,3.90
2024-04-17T13:41:08.714Z,4.10
2024-04-17T13:43:39.669Z,6.20
2024-04-17T13:46:31.819Z,2.20
2024-04-17T13:48:59.484Z,3.40
2024-04-17T13:51:27.644Z,1.40
2024-04-17T13:53:55.420Z,1.60
2024-04-17T13:56:24.906Z,2.70
2024-04-17T13:58:52.204Z,2.30
2024-04-17T14:01:20.791Z,1.50
2024-04-17T14:03:48.756Z,1.40
2024-04-17T14:06:17.523Z,1.80
2024-04-17T14:08:45.174Z,2.10
2024-04-17T14:11:12.135Z,2.40
2024-04-17T14:13:39.673Z,2.60
2024-04-17T14:16:09.624Z,2.30
2024-04-17T14:18:36.978Z,2.60
2024-04-17T14:21:14.055Z,3.00
2024-04-17T14:23:43.435Z,2.00
2024-04-17T14:26:10.931Z,2.60
2024-04-17T14:28:37.996Z,2.10
2024-04-17T14:31:13.474Z,2.70
2024-04-17T14:33:44.295Z,3.30
2024-04-17T14:36:14.349Z,2.30
2024-04-17T14:38:56.989Z,5.10
2024-04-17T14:41:27.839Z,4.60
2024-04-17T14:43:56.611Z,3.60
2024-04-17T14:46:25.642Z,5.20
2024-04-17T14:48:52.603Z,2.90
2024-04-17T14:51:19.975Z,4.70
2024-04-17T14:53:46.781Z,5.80
2024-04-17T14:56:13.894Z,5.80
2024-04-17T14:58:40.972Z,3.40
2024-04-17T15:01:09.108Z,2.40
2024-04-17T15:03:37.705Z,4.20
2024-04-17T15:06:12.506Z,3.60
2024-04-17T15:08:42.382Z,2.70
2024-04-17T15:11:12.858Z,3.20
2024-04-17T15:13:43.382Z,4.70
2024-04-17T15:16:13.234Z,2.10
2024-04-17T15:18:41.134Z,2.10
2024-04-17T15:21:14.532Z,2.10
2024-04-17T15:24:05.940Z,2.90
2024-04-17T15:26:32.853Z,4.50
2024-04-17T15:28:59.952Z,2.90
2024-04-17T15:31:28.474Z,1.90
2024-04-17T15:33:58.235Z,2.10
2024-04-17T15:38:59.727Z,6.80
2024-04-17T15:41:30.837Z,3.50
2024-04-17T15:43:58.318Z,3.90
2024-04-17T15:46:26.599Z,2.30
2024-04-17T15:48:53.565Z,2.30
2024-04-17T15:51:20.671Z,4.10
2024-04-17T15:53:50.497Z,3.10
2024-04-17T15:56:21.024Z,3.10
2024-04-17T15:58:50.771Z,2.10
2024-04-17T16:01:21.398Z,2.40
2024-04-17T16:03:53.393Z,3.20
2024-04-17T16:06:25.434Z,2.00
2024-04-17T16:08:53.859Z,3.10
2024-04-17T16:11:22.532Z,2.60
2024-04-17T16:16:26.739Z,2.80
2024-04-17T16:18:54.349Z,5.00
2024-04-17T16:21:23.083Z,3.00
2024-04-17T16:23:52.974Z,2.90
2024-04-17T16:26:30.543Z,2.20
2024-04-17T16:29:02.371Z,3.10
2024-04-17T16:31:32.994Z,2.20
2024-04-17T16:34:01.719Z,5.50
2024-04-17T16:36:42.446Z,2.60
2024-04-17T16:39:12.967Z,3.20
2024-04-17T16:41:45.676Z,2.70
2024-04-17T16:44:19.053Z,3.40
2024-04-17T16:46:47.192Z,4.00
2024-04-17T16:49:18.154Z,3.30
2024-04-17T16:51:50.408Z,3.70
2024-04-17T16:54:17.894Z,3.70
2024-04-17T16:57:08.959Z,3.60
2024-04-17T16:59:47.001Z,4.20
2024-04-17T17:02:21.631Z,4.50
2024-04-17T17:04:53.278Z,8.60
2024-04-17T17:07:22.931Z,10.90
2024-04-17T17:12:52.712Z,3.70
2024-04-17T17:15:30.756Z,4.90
2024-04-17T17:18:01.670Z,4.10
2024-04-17T17:20:29.655Z,5.00
2024-04-17T17:22:56.932Z,7.40
2024-04-17T17:25:24.200Z,4.90
2024-04-17T17:27:52.861Z,9.90
2024-04-17T17:30:19.918Z,6.30
2024-04-17T17:32:47.838Z,10.20
2024-04-17T17:35:15.130Z,6.60
2024-04-17T17:37:43.780Z,8.20
2024-04-17T17:40:12.401Z,7.20
2024-04-17T17:42:44.115Z,13.30
2024-04-17T17:45:14.228Z,8.70
2024-04-17T17:47:49.392Z,11.70
2024-04-17T17:50:18.103Z,42.30
2024-04-17T17:52:48.655Z,55.90
2024-04-17T17:55:21.821Z,107.20
2024-04-17T17:57:58.490Z,60.20
2024-04-17T18:00:31.963Z,53.30
2024-04-17T18:03:15.632Z,81.40
2024-04-17T18:06:07.183Z,60.60
2024-04-17T18:14:46.518Z,49.90
2024-04-17T18:20:36.087Z,37.50
2024-04-17T18:23:24.113Z,40.30
2024-04-17T18:25:52.540Z,53.70
2024-04-17T18:28:28.239Z,47.40
2024-04-17T18:30:59.029Z,30.70
2024-04-17T18:33:43.314Z,27.00
2024-04-17T18:36:29.818Z,27.70
2024-04-17T18:39:00.298Z,30.70
2024-04-17T18:41:33.200Z,23.70
2024-04-17T18:44:10.587Z,29.40
2024-04-17T18:46:40.721Z,34.00
2024-04-17T18:49:12.599Z,32.30
2024-04-17T18:52:50.426Z,45.50
2024-04-17T18:56:16.198Z,102.50
2024-04-17T18:59:04.566Z,82.30
2024-04-17T19:01:38.692Z,80.60
2024-04-17T19:04:11.849Z,95.50
2024-04-17T19:06:46.684Z,107.80
2024-04-17T19:09:47.571Z,104.60
2024-04-17T19:12:21.927Z,84.40
2024-04-17T19:14:53.783Z,78.00
2024-04-17T19:17:35.078Z,51.20
2024-04-17T19:20:20.550Z,45.60
2024-04-17T19:23:02.087Z,37.60
2024-04-17T19:25:41.677Z,46.30
2024-04-17T19:28:25.064Z,55.60
2024-04-17T19:31:36.487Z,29.40
2024-04-17T19:34:14.807Z,20.40
2024-04-17T19:37:02.484Z,57.60
2024-04-17T19:40:01.301Z,130.50
2024-04-17T19:43:23.714Z,74.80
2024-04-17T19:46:09.312Z,36.30
2024-04-17T19:48:50.018Z,39.10
2024-04-17T19:51:26.509Z,24.80
2024-04-17T19:54:11.612Z,16.10
2024-04-17T19:56:52.069Z,14.80
2024-04-17T19:59:25.712Z,12.50
2024-04-17T20:01:57.919Z,10.80
2024-04-17T20:04:38.811Z,9.70
2024-04-17T20:07:15.167Z,13.00
2024-04-17T20:09:45.035Z,10.80
2024-04-17T20:12:13.059Z,11.50
2024-04-17T20:14:47.158Z,10.20
2024-04-17T20:17:15.604Z,8.00
2024-04-17T20:19:45.846Z,6.70
2024-04-17T20:22:16.420Z,6.50
2024-04-17T20:24:50.394Z,6.30
2024-04-17T20:27:18.325Z,29.50
2024-04-17T20:30:10.262Z,30.70
2024-04-17T20:32:49.040Z,19.20
2024-04-17T20:35:31.349Z,57.70
2024-04-17T20:41:56.144Z,42.00
2024-04-17T20:45:05.712Z,44.80
2024-04-17T20:47:39.244Z,36.50
2024-04-17T20:50:30.342Z,22.10
2024-04-17T20:53:07.724Z,9.90
2024-04-17T20:55:47.048Z,5.90
2024-04-17T20:58:47.937Z,5.80
2024-04-17T21:01:47.533Z,7.70
2024-04-17T21:08:51.711Z,9.80
2024-04-17T21:11:23.037Z,11.60
2024-04-17T21:13:57.835Z,9.90
2024-04-17T21:16:36.029Z,11.20
2024-04-17T21:19:10.867Z,6.90
2024-04-17T21:21:43.246Z,7.30
2024-04-17T21:24:26.332Z,8.70
2024-04-17T21:26:59.127Z,7.70
2024-04-17T21:29:34.152Z,5.80
2024-04-17T21:32:09.051Z,4.10
2024-04-17T21:37:44.887Z,5.00
2024-04-17T21:40:24.063Z,7.30
2024-04-17T21:43:27.063Z,8.30
2024-04-17T21:46:03.235Z,8.10
2024-04-17T21:48:32.211Z,9.00
2024-04-17T21:51:04.388Z,7.20
2024-04-17T21:53:34.324Z,7.90
2024-04-17T21:56:05.608Z,6.40
2024-04-17T21:58:48.027Z,6.50
2024-04-17T22:01:17.074Z,11.30
2024-04-17T22:03:45.219Z,10.90
2024-04-17T22:06:17.751Z,20.20
2024-04-17T22:08:46.327Z,17.60
2024-04-17T22:11:18.654Z,72.50
2024-04-17T22:16:46.549Z,63.90
2024-04-17T22:19:18.296Z,64.40
2024-04-17T22:21:48.482Z,66.60
2024-04-17T22:24:21.112Z,52.80
2024-04-17T22:27:03.413Z,35.70
2024-04-17T22:29:44.908Z,30.30
2024-04-17T22:32:17.359Z,23.60
2024-04-17T22:34:57.340Z,20.00
2024-04-17T22:37:32.279Z,14.30
2024-04-17T22:40:08.730Z,12.50
2024-04-17T22:42:39.362Z,8.90
2024-04-17T22:45:30.745Z,8.00
2024-04-17T22:48:05.899Z,7.90
2024-04-17T22:53:07.113Z,6.70
2024-04-17T22:55:51.514Z,9.10
2024-04-17T22:58:21.070Z,21.40
2024-04-17T23:00:53.751Z,23.00
2024-04-17T23:03:24.592Z,17.70
2024-04-17T23:06:13.001Z,20.90
2024-04-17T23:08:49.887Z,20.40
2024-04-17T23:11:20.121Z,20.50
2024-04-17T23:13:54.108Z,22.70
2024-04-17T23:16:24.473Z,23.60
2024-04-17T23:19:12.565Z,18.80
2024-04-17T23:21:49.123Z,24.40
2024-04-17T23:24:24.481Z,19.90
2024-04-17T23:26:57.907Z,20.10
2024-04-17T23:29:31.810Z,21.90
2024-04-17T23:32:12.562Z,24.40
2024-04-17T23:34:45.599Z,23.90
2024-04-17T23:37:29.986Z,23.00
2024-04-17T23:39:59.274Z,19.40
2024-04-17T23:42:31.498Z,27.10
2024-04-17T23:45:02.985Z,22.00
2024-04-17T23:47:37.245Z,18.60
2024-04-17T23:50:11.099Z,17.10
2024-04-17T23:52:42.482Z,16.90
2024-04-17T23:55:11.820Z,16.60
2024-04-17T23:57:50.134Z,13.80
